Time;durP1;ratioP1;P1;durP2;ratioP2;P2;SDS_P1;SDS_P2;PMS_P1;PMS_P2;Temp;Humidity;BMP_temperature;BMP_pressure;BME280_temperature;BME280_humidity;BME280_pressure;Samples;Min_cycle;Max_cycle;Signal;HPM_P1;HPM_P2
2022/02/26 00:00:49;;;;;;;50.00;27.80;;;;;;;3.50;58.79;99750.98;231237;1229;138813;-59
2022/02/26 00:05:52;;;;;;;50.80;28.40;;;;;;;3.50;58.68;99750.09;231152;1229;139055;-61
2022/02/26 00:10:55;;;;;;;55.50;28.90;;;;;;;3.47;58.33;99749.47;231236;1228;139169;-61
2022/02/26 00:16:00;;;;;;;64.30;32.70;;;;;;;3.42;58.61;99752.71;230775;1229;139177;-59
2022/02/26 00:21:03;;;;;;;62.70;33.60;;;;;;;3.39;58.66;99757.35;231380;1229;138898;-59
2022/02/26 00:26:06;;;;;;;64.00;33.60;;;;;;;3.31;58.77;99758.40;231247;1229;139350;-59
2022/02/26 00:31:09;;;;;;;62.60;34.20;;;;;;;3.22;58.75;99766.30;231101;1229;138510;-59
2022/02/26 00:36:12;;;;;;;70.30;34.40;;;;;;;3.14;58.83;99768.58;231176;1228;139994;-61
2022/02/26 00:41:15;;;;;;;60.60;35.10;;;;;;;3.06;59.12;99767.48;231332;1228;139132;-59
2022/02/26 00:46:21;;;;;;;64.10;33.80;;;;;;;3.03;59.13;99766.85;231029;1228;139192;-59
2022/02/26 00:51:24;;;;;;;60.80;33.80;;;;;;;3.00;59.39;99771.65;231303;1229;139036;-61
2022/02/26 00:56:27;;;;;;;56.40;31.40;;;;;;;2.94;59.35;99771.59;231390;1229;139707;-58
2022/02/26 01:01:30;;;;;;;61.70;34.20;;;;;;;2.89;59.24;99770.98;231323;1229;139479;-60
2022/02/26 01:06:34;;;;;;;60.60;32.00;;;;;;;2.89;59.33;99778.69;231292;1228;140218;-59
2022/02/26 01:11:37;;;;;;;64.20;33.50;;;;;;;2.89;59.24;99780.09;231300;1229;140228;-60
2022/02/26 01:16:40;;;;;;;68.20;35.70;;;;;;;2.91;59.35;99784.43;231278;1229;138975;-60
2022/02/26 01:21:43;;;;;;;65.90;32.90;;;;;;;2.95;59.46;99781.73;231303;1229;138990;-59
2022/02/26 01:26:47;;;;;;;58.80;32.90;;;;;;;2.95;59.30;99778.94;231408;1229;139199;-59
2022/02/26 01:31:50;;;;;;;61.90;31.70;;;;;;;2.92;59.44;99783.38;231288;1229;139490;-60
2022/02/26 01:36:53;;;;;;;62.00;32.80;;;;;;;2.93;59.48;99784.23;230750;1229;139531;-61
2022/02/26 01:41:59;;;;;;;61.50;33.10;;;;;;;2.93;59.47;99785.80;231277;1229;139463;-62
2022/02/26 01:47:04;;;;;;;56.30;30.10;;;;;;;2.80;59.14;99790.59;231339;1228;140494;-60
2022/02/26 01:52:08;;;;;;;52.00;28.80;;;;;;;2.74;59.35;99797.17;231135;1227;139724;-58
2022/02/26 01:57:13;;;;;;;57.90;30.30;;;;;;;2.75;59.63;99794.02;231295;1228;139400;-60
2022/02/26 02:02:16;;;;;;;51.40;27.70;;;;;;;2.73;59.51;99790.02;231340;1228;139952;-59
2022/02/26 02:07:19;;;;;;;49.10;27.70;;;;;;;2.71;59.27;99793.73;231272;1229;138619;-61
2022/02/26 02:12:22;;;;;;;56.10;30.40;;;;;;;2.71;59.42;99795.33;231317;1229;138941;-60
2022/02/26 02:17:25;;;;;;;51.40;27.40;;;;;;;2.72;59.22;99800.39;231316;1229;139002;-61
2022/02/26 02:22:29;;;;;;;53.00;29.30;;;;;;;2.67;59.42;99798.02;231224;1228;139796;-60
2022/02/26 02:27:32;;;;;;;49.70;27.30;;;;;;;2.60;59.24;99794.80;231305;1229;138812;-61
2022/02/26 02:32:35;;;;;;;50.40;28.00;;;;;;;2.54;59.15;99800.86;231437;1229;139248;-58
2022/02/26 02:37:38;;;;;;;54.20;29.90;;;;;;;2.54;59.47;99807.86;231281;1229;139505;-56
2022/02/26 02:42:41;;;;;;;53.30;29.30;;;;;;;2.52;59.19;99808.42;231333;1228;139881;-60
2022/02/26 02:47:45;;;;;;;60.00;29.90;;;;;;;2.43;59.25;99808.58;231313;1229;140531;-58
2022/02/26 02:52:49;;;;;;;57.80;28.50;;;;;;;2.30;59.39;99807.56;231390;1228;139382;-58
2022/02/26 02:57:55;;;;;;;59.40;31.00;;;;;;;2.19;59.46;99810.38;231299;1228;139475;-59
2022/02/26 03:03:00;;;;;;;57.70;31.00;;;;;;;2.16;59.71;99809.71;231542;1228;140419;-58
2022/02/26 03:08:04;;;;;;;56.60;29.30;;;;;;;2.24;59.79;99820.80;231313;1228;139572;-61
2022/02/26 03:13:08;;;;;;;53.60;28.50;;;;;;;2.28;59.96;99825.65;231301;1229;139353;-60
2022/02/26 03:18:12;;;;;;;48.80;26.10;;;;;;;2.34;59.81;99828.88;231294;1228;139161;-61
2022/02/26 03:23:15;;;;;;;43.40;23.40;;;;;;;2.39;59.84;99835.11;231298;1229;139879;-59
2022/02/26 03:28:19;;;;;;;40.30;21.30;;;;;;;2.39;59.68;99840.89;231309;1229;139754;-61
2022/02/26 03:33:22;;;;;;;39.60;19.90;;;;;;;2.38;59.86;99843.33;231300;1228;139117;-59
2022/02/26 03:38:25;;;;;;;38.30;19.80;;;;;;;2.41;59.58;99843.46;231297;1228;139007;-60
2022/02/26 03:43:28;;;;;;;35.20;19.60;;;;;;;2.43;59.51;99850.77;231293;1229;138969;-59
2022/02/26 03:48:31;;;;;;;37.50;19.90;;;;;;;2.45;59.41;99853.92;231313;1229;140636;-60
2022/02/26 03:53:34;;;;;;;39.30;18.20;;;;;;;2.48;59.49;99862.79;231310;1228;139566;-59
2022/02/26 03:58:37;;;;;;;40.70;20.10;;;;;;;2.49;59.17;99867.87;231291;1229;139087;-61
2022/02/26 04:03:40;;;;;;;35.10;18.60;;;;;;;2.50;59.28;99871.16;231385;1228;139464;-60
2022/02/26 04:08:43;;;;;;;31.80;18.10;;;;;;;2.52;59.38;99876.03;231391;1228;139099;-60
2022/02/26 04:13:46;;;;;;;31.00;17.10;;;;;;;2.54;59.13;99878.98;231102;1229;139012;-61
2022/02/26 04:18:49;;;;;;;32.80;18.40;;;;;;;2.58;59.01;99882.77;231314;1229;139418;-59
2022/02/26 04:23:53;;;;;;;36.90;18.70;;;;;;;2.60;58.93;99884.83;231218;1229;138860;-59
2022/02/26 04:28:57;;;;;;;41.80;21.70;;;;;;;2.60;58.96;99893.95;231245;1229;139324;-59
2022/02/26 04:34:00;;;;;;;41.30;21.10;;;;;;;2.59;58.86;99902.04;231307;1228;138999;-62
2022/02/26 04:39:04;;;;;;;43.60;24.20;;;;;;;2.52;58.84;99905.11;231398;1228;139804;-61
2022/02/26 04:44:07;;;;;;;48.30;24.80;;;;;;;2.48;58.97;99911.83;231310;1229;139194;-62
2022/02/26 04:49:10;;;;;;;105.60;62.60;;;;;;;2.46;59.21;99915.73;231270;1229;139216;-62
2022/02/26 04:54:13;;;;;;;55.30;29.00;;;;;;;2.55;59.38;99921.89;231305;1228;138913;-62
2022/02/26 04:59:16;;;;;;;48.70;26.70;;;;;;;2.71;59.51;99933.02;231237;1228;139117;-61
2022/02/26 05:04:19;;;;;;;112.50;69.90;;;;;;;2.66;59.04;99939.41;231359;1229;139299;-61
2022/02/26 05:09:22;;;;;;;62.30;33.50;;;;;;;2.73;59.63;99950.86;231286;1228;139176;-59
2022/02/26 05:14:25;;;;;;;53.70;26.40;;;;;;;2.80;59.16;99958.47;231402;1229;138645;-62
2022/02/26 05:19:28;;;;;;;46.10;25.80;;;;;;;2.68;58.79;99966.18;231276;1229;139256;-62
2022/02/26 05:24:31;;;;;;;47.10;25.50;;;;;;;2.59;58.97;99971.40;231159;1228;138936;-56
2022/02/26 05:29:35;;;;;;;72.60;36.60;;;;;;;2.54;58.99;99976.20;231259;1229;139064;-60
2022/02/26 05:34:38;;;;;;;55.80;30.10;;;;;;;2.51;58.93;99985.70;231313;1229;138829;-56
2022/02/26 05:39:44;;;;;;;52.20;27.50;;;;;;;2.41;59.09;99992.50;231231;1229;139058;-61
2022/02/26 05:44:47;;;;;;;53.40;27.00;;;;;;;2.29;58.84;100007.88;231397;1229;139082;-60
2022/02/26 05:49:50;;;;;;;49.00;26.30;;;;;;;2.24;58.89;100018.80;231270;1228;140578;-62
2022/02/26 05:54:53;;;;;;;45.70;25.10;;;;;;;2.21;59.17;100030.92;231244;1228;139077;-60
2022/02/26 05:59:56;;;;;;;47.80;26.70;;;;;;;2.14;59.22;100037.47;231296;1229;138978;-61
2022/02/26 06:04:59;;;;;;;52.80;26.50;;;;;;;2.08;59.01;100036.84;231384;1228;139683;-60
2022/02/26 06:10:03;;;;;;;48.10;26.30;;;;;;;2.05;59.21;100037.40;231367;1227;139314;-59
2022/02/26 06:15:06;;;;;;;49.70;26.20;;;;;;;2.03;59.39;100042.32;231399;1228;139518;-63
2022/02/26 06:20:11;;;;;;;46.90;24.50;;;;;;;2.05;59.53;100049.30;231247;1228;139481;-65
2022/02/26 06:25:13;;;;;;;44.60;23.70;;;;;;;2.13;59.55;100057.63;231239;1228;139887;-59
2022/02/26 06:30:17;;;;;;;45.40;24.50;;;;;;;2.20;59.51;100067.16;231171;1229;139363;-63
2022/02/26 06:35:20;;;;;;;48.60;25.10;;;;;;;2.25;59.46;100067.46;231319;1228;139129;-63
2022/02/26 06:40:23;;;;;;;47.50;25.30;;;;;;;2.29;59.40;100073.20;231337;1229;139181;-63
2022/02/26 06:45:26;;;;;;;47.20;25.20;;;;;;;2.30;59.33;100079.65;231302;1230;139254;-64
2022/02/26 06:50:30;;;;;;;51.40;26.70;;;;;;;2.28;59.26;100082.83;231456;1228;139196;-64
2022/02/26 06:55:33;;;;;;;46.80;25.10;;;;;;;2.34;59.41;100087.48;231287;1229;139015;-64
2022/02/26 07:00:36;;;;;;;45.50;23.90;;;;;;;2.42;59.32;100091.23;231400;1228;140002;-64
2022/02/26 07:05:39;;;;;;;43.80;24.20;;;;;;;2.49;59.48;100100.78;231334;1229;139221;-60
2022/02/26 07:10:42;;;;;;;47.20;25.00;;;;;;;2.56;59.56;100106.66;231252;1229;138971;-63
2022/02/26 07:15:45;;;;;;;44.00;24.00;;;;;;;2.66;59.35;100104.09;231287;1230;139737;-61
2022/02/26 07:20:48;;;;;;;48.00;23.00;;;;;;;2.78;59.28;100114.45;231394;1230;138903;-60
2022/02/26 07:25:51;;;;;;;40.70;21.60;;;;;;;2.85;59.16;100118.38;231290;1229;139793;-63
2022/02/26 07:30:54;;;;;;;44.90;23.80;;;;;;;2.94;59.31;100127.20;231296;1229;139026;-62
2022/02/26 07:35:57;;;;;;;41.10;21.10;;;;;;;3.06;59.01;100137.55;231293;1229;139085;-62
2022/02/26 07:41:00;;;;;;;44.50;23.50;;;;;;;3.15;58.82;100141.30;230895;1228;140434;-59
2022/02/26 07:46:05;;;;;;;42.20;21.70;;;;;;;3.25;58.88;100143.95;231334;1228;140755;-61
2022/02/26 07:51:08;;;;;;;34.80;19.20;;;;;;;3.33;58.71;100152.23;231444;1228;139006;-61
2022/02/26 07:56:12;;;;;;;36.30;18.90;;;;;;;3.43;58.70;100157.18;231293;1230;139821;-57
2022/02/26 08:01:17;;;;;;;34.60;19.20;;;;;;;3.58;58.50;100160.27;231334;1229;139247;-59
2022/02/26 08:06:20;;;;;;;;;;;;;;;3.65;58.27;100160.19;231368;1228;139399;-63
2022/02/26 08:11:28;;;;;;;31.20;16.50;;;;;;;3.64;57.89;100167.22;231338;1230;125836;-62
2022/02/26 08:16:32;;;;;;;30.00;16.80;;;;;;;3.60;57.57;100168.33;231251;1229;139303;-61
2022/02/26 08:21:35;;;;;;;29.90;16.30;;;;;;;3.68;57.67;100166.63;231209;1227;139328;-60
2022/02/26 08:26:39;;;;;;;29.10;15.00;;;;;;;3.80;57.60;100167.16;231347;1229;139874;-60
2022/02/26 08:31:42;;;;;;;28.50;14.90;;;;;;;3.97;57.36;100165.63;231316;1229;139576;-61
2022/02/26 08:36:45;;;;;;;31.40;14.40;;;;;;;4.15;57.14;100173.75;231275;1228;139424;-59
2022/02/26 08:41:48;;;;;;;26.40;13.30;;;;;;;4.34;57.09;100179.90;231429;1228;139266;-61
2022/02/26 08:46:51;;;;;;;27.10;14.00;;;;;;;4.56;56.88;100176.16;231275;1229;139467;-62
2022/02/26 08:51:55;;;;;;;27.70;13.70;;;;;;;4.78;56.63;100178.89;231330;1229;140147;-63
2022/02/26 08:56:58;;;;;;;23.30;14.20;;;;;;;4.95;56.33;100181.87;231358;1229;139735;-62
2022/02/26 09:02:01;;;;;;;31.80;16.50;;;;;;;5.12;56.08;100184.33;231332;1228;139132;-63
2022/02/26 09:07:05;;;;;;;26.90;15.60;;;;;;;5.18;55.74;100191.77;231291;1229;139179;-62
2022/02/26 09:12:08;;;;;;;31.80;14.80;;;;;;;5.23;55.49;100199.95;231272;1229;139677;-62
2022/02/26 09:17:11;;;;;;;26.20;14.20;;;;;;;5.19;55.14;100204.07;231304;1229;139303;-63
2022/02/26 09:22:15;;;;;;;30.20;15.60;;;;;;;5.16;55.14;100210.64;231315;1230;140577;-62
2022/02/26 09:27:18;;;;;;;30.70;15.30;;;;;;;5.19;55.18;100225.54;231372;1230;139740;-61
2022/02/26 09:32:22;;;;;;;27.90;16.00;;;;;;;5.25;55.22;100231.20;231177;1230;139398;-60
2022/02/26 09:37:26;;;;;;;30.30;16.00;;;;;;;5.33;55.23;100233.86;231270;1230;139240;-59
2022/02/26 09:42:30;;;;;;;101.30;59.80;;;;;;;5.46;55.17;100237.45;231260;1228;139736;-61
2022/02/26 09:47:33;;;;;;;33.40;20.10;;;;;;;5.68;55.49;100244.36;231178;1228;139719;-59
2022/02/26 09:52:42;;;;;;;25.60;14.20;;;;;;;5.86;55.39;100246.58;231158;1229;139745;-62
2022/02/26 09:57:45;;;;;;;29.30;14.20;;;;;;;5.90;55.14;100248.08;231234;1228;139735;-56
2022/02/26 10:02:49;;;;;;;30.20;15.70;;;;;;;5.94;55.26;100253.82;231407;1229;139350;-60
2022/02/26 10:07:53;;;;;;;31.10;16.70;;;;;;;5.98;55.12;100260.76;231210;1229;139776;-59
2022/02/26 10:13:01;;;;;;;33.50;15.30;;;;;;;6.01;55.00;100268.28;231244;1229;138962;-60
2022/02/26 10:18:09;;;;;;;335.40;185.80;;;;;;;6.03;55.05;100267.36;231261;1229;139611;-62
2022/02/26 10:23:14;;;;;;;60.00;29.90;;;;;;;6.17;55.30;100273.36;231154;1230;139358;-63
2022/02/26 10:28:17;;;;;;;37.90;18.70;;;;;;;6.24;55.14;100275.47;231197;1230;139021;-63
2022/02/26 10:33:23;;;;;;;33.20;18.30;;;;;;;6.35;55.16;100275.39;231341;1229;139231;-62
2022/02/26 10:38:30;;;;;;;32.60;17.10;;;;;;;6.51;55.06;100278.52;231344;1229;139398;-63
2022/02/26 10:43:39;;;;;;;30.60;17.90;;;;;;;6.57;54.59;100277.80;231202;1229;139047;-61
2022/02/26 10:48:43;;;;;;;30.10;15.90;;;;;;;6.81;54.91;100281.42;231134;1230;140928;-62
2022/02/26 10:53:47;;;;;;;26.50;15.20;;;;;;;7.08;55.10;100280.34;231126;1230;140025;-61
2022/02/26 10:58:51;;;;;;;25.20;14.50;;;;;;;7.37;54.98;100285.33;231137;1230;139383;-62
2022/02/26 11:03:58;;;;;;;29.20;14.20;;;;;;;7.65;54.48;100283.81;231337;1230;140179;-64
2022/02/26 11:09:01;;;;;;;25.00;13.10;;;;;;;7.84;54.51;100280.05;231387;1229;139884;-63
2022/02/26 11:14:05;;;;;;;23.60;12.40;;;;;;;8.01;53.90;100281.82;231194;1229;139191;-61
2022/02/26 11:19:10;;;;;;;318.70;192.00;;;;;;;8.02;53.76;100281.61;231200;1228;139999;-62
2022/02/26 11:24:16;;;;;;;36.50;18.00;;;;;;;8.09;53.80;100277.84;231113;1229;139757;-62
2022/02/26 11:29:23;;;;;;;14.00;6.90;;;;;;;8.15;53.67;100269.00;231246;1227;139362;-63
2022/02/26 11:34:29;;;;;;;15.40;8.40;;;;;;;8.08;53.25;100273.47;231677;1229;139133;-62
2022/02/26 11:39:41;;;;;;;20.40;9.80;;;;;;;7.97;53.03;100275.59;231602;1229;139510;-64
2022/02/26 11:44:53;;;;;;;49.30;25.20;;;;;;;7.85;52.56;100273.31;231882;1229;138989;-63
2022/02/26 11:49:57;;;;;;;21.20;9.10;;;;;;;7.73;52.59;100277.92;231727;1228;140466;-63
2022/02/26 11:55:00;;;;;;;20.00;10.80;;;;;;;7.64;52.97;100277.85;231745;1229;139119;-63
2022/02/26 12:00:10;;;;;;;17.80;10.30;;;;;;;7.60;52.85;100279.89;231715;1229;139036;-63
2022/02/26 12:05:23;;;;;;;22.50;10.80;;;;;;;7.67;53.41;100277.90;231772;1228;139745;-62
2022/02/26 12:10:27;;;;;;;20.10;10.90;;;;;;;7.78;52.74;100279.00;231746;1228;139158;-64
2022/02/26 12:15:35;;;;;;;18.70;9.40;;;;;;;7.73;52.65;100279.52;231781;1229;139541;-63
2022/02/26 12:20:39;;;;;;;16.60;10.00;;;;;;;7.61;52.73;100278.45;231849;1229;138921;-60
2022/02/26 12:25:44;;;;;;;32.50;17.00;;;;;;;7.72;53.54;100276.70;231780;1228;139055;-63
2022/02/26 12:30:52;;;;;;;17.70;10.10;;;;;;;8.13;53.82;100273.12;231642;1229;139014;-63
2022/02/26 12:36:12;;;;;;;17.30;7.40;;;;;;;8.25;52.72;100270.77;231593;1229;139606;-63
2022/02/26 12:41:31;;;;;;;12.60;7.60;;;;;;;8.13;52.60;100271.35;231656;1229;141332;-63
2022/02/26 12:46:34;;;;;;;12.90;7.70;;;;;;;7.91;52.37;100275.59;231711;1229;138817;-63
2022/02/26 12:51:39;;;;;;;33.90;21.10;;;;;;;7.80;53.69;100277.88;231724;1228;139426;-61
2022/02/26 12:56:43;;;;;;;15.10;9.20;;;;;;;7.80;53.57;100284.61;231856;1228;140287;-63
2022/02/26 13:01:49;;;;;;;16.00;8.90;;;;;;;7.57;53.07;100289.17;231778;1229;139491;-61
2022/02/26 13:06:54;;;;;;;14.80;9.30;;;;;;;7.29;53.68;100295.45;231778;1228;142384;-59
2022/02/26 13:12:00;;;;;;;18.40;10.20;;;;;;;7.10;53.97;100300.23;231743;1228;139498;-61
2022/02/26 13:17:04;;;;;;;14.20;9.20;;;;;;;7.02;54.33;100292.16;231777;1229;139538;-61
2022/02/26 13:22:07;;;;;;;13.30;8.60;;;;;;;6.94;54.52;100289.73;231365;1229;139895;-60
2022/02/26 13:27:14;;;;;;;16.40;9.40;;;;;;;6.86;54.75;100286.23;231808;1229;139481;-59
2022/02/26 13:32:19;;;;;;;16.80;10.00;;;;;;;6.83;54.87;100289.51;231713;1228;139181;-61
2022/02/26 13:37:26;;;;;;;17.10;11.00;;;;;;;6.79;55.32;100294.36;231783;1228;140051;-61
2022/02/26 13:42:32;;;;;;;21.00;11.30;;;;;;;6.76;55.24;100297.23;231703;1228;139181;-61
2022/02/26 13:47:36;;;;;;;;;;;;;;;6.73;55.56;100295.94;231717;1229;140497;-61
2022/02/26 13:52:42;;;;;;;18.30;12.00;;;;;;;6.75;55.81;100293.39;231717;1228;124756;-60
2022/02/26 13:57:47;;;;;;;21.00;13.70;;;;;;;6.87;55.94;100295.20;231486;1228;139143;-61
2022/02/26 14:03:09;;;;;;;18.90;12.60;;;;;;;6.94;55.92;100293.44;231791;1228;138684;-61
2022/02/26 14:08:13;;;;;;;20.60;12.10;;;;;;;6.97;55.89;100297.40;231698;1228;139788;-60
2022/02/26 14:13:18;;;;;;;21.70;12.60;;;;;;;7.01;56.11;100295.90;231680;1228;139323;-60
2022/02/26 14:18:23;;;;;;;18.50;11.90;;;;;;;7.02;56.00;100302.91;231592;1228;139834;-60
2022/02/26 14:23:25;;;;;;;19.80;11.90;;;;;;;7.05;55.70;100306.00;231449;1228;138740;-61
2022/02/26 14:28:28;;;;;;;16.70;10.80;;;;;;;7.07;55.63;100307.18;231723;1228;138947;-60
2022/02/26 14:33:32;;;;;;;21.00;10.70;;;;;;;7.07;55.72;100308.23;231755;1228;140163;-62
2022/02/26 14:38:35;;;;;;;33.80;18.90;;;;;;;7.07;55.50;100308.24;231869;1228;138669;-62
2022/02/26 14:43:38;;;;;;;23.40;12.70;;;;;;;7.10;55.63;100316.98;231713;1228;139237;-60
2022/02/26 14:48:41;;;;;;;21.40;10.70;;;;;;;7.01;55.13;100316.88;231683;1228;139221;-60
2022/02/26 14:53:44;;;;;;;18.90;11.00;;;;;;;6.97;55.51;100317.16;231747;1228;138820;-59
2022/02/26 14:58:47;;;;;;;17.00;9.50;;;;;;;6.95;54.91;100321.80;231715;1228;139205;-58
2022/02/26 15:03:50;;;;;;;20.20;10.50;;;;;;;6.92;54.97;100326.12;231756;1228;139438;-59
2022/02/26 15:08:54;;;;;;;18.60;10.30;;;;;;;6.90;55.11;100329.89;231930;1228;139032;-59
2022/02/26 15:13:57;;;;;;;18.10;10.40;;;;;;;6.90;55.02;100326.19;231690;1228;139343;-60
2022/02/26 15:19:02;;;;;;;20.80;12.30;;;;;;;6.91;55.24;100334.26;231766;1229;139936;-59
2022/02/26 15:24:05;;;;;;;22.60;12.80;;;;;;;6.94;55.39;100338.42;231754;1228;138954;-59
2022/02/26 15:29:08;;;;;;;21.90;12.70;;;;;;;6.93;55.25;100344.96;231783;1228;139166;-57
2022/02/26 15:34:12;;;;;;;22.00;12.70;;;;;;;6.89;55.12;100351.59;231741;1228;139850;-60
2022/02/26 15:39:16;;;;;;;24.60;13.70;;;;;;;6.86;55.33;100361.55;231873;1228;140435;-62
2022/02/26 15:44:20;;;;;;;55.40;35.60;;;;;;;6.88;55.47;100369.44;231773;1228;139554;-63
2022/02/26 15:49:26;;;;;;;30.80;15.80;;;;;;;6.95;55.48;100386.04;231649;1228;139606;-62
2022/02/26 15:54:29;;;;;;;30.60;16.70;;;;;;;6.95;55.57;100391.31;231713;1228;139274;-61
2022/02/26 15:59:33;;;;;;;33.50;18.00;;;;;;;6.94;55.93;100398.40;231618;1228;138883;-59
2022/02/26 16:04:36;;;;;;;34.70;18.10;;;;;;;6.90;56.00;100399.20;231690;1228;138990;-59
2022/02/26 16:09:39;;;;;;;37.10;18.70;;;;;;;6.83;56.09;100401.83;231677;1228;139612;-60
2022/02/26 16:14:42;;;;;;;36.70;18.10;;;;;;;6.74;56.07;100408.77;231765;1228;139070;-61
2022/02/26 16:19:46;;;;;;;32.00;16.70;;;;;;;6.68;55.87;100414.75;231727;1228;139264;-60
2022/02/26 16:24:49;;;;;;;569.20;363.00;;;;;;;6.62;56.02;100426.52;231695;1227;139212;-60
2022/02/26 16:29:52;;;;;;;188.60;103.10;;;;;;;6.65;56.45;100429.44;231705;1228;139159;-62
2022/02/26 16:34:55;;;;;;;46.60;24.30;;;;;;;6.69;56.54;100430.04;231684;1228;139580;-60
2022/02/26 16:39:59;;;;;;;38.60;20.70;;;;;;;6.56;56.31;100436.52;231694;1228;138694;-60
2022/02/26 16:45:03;;;;;;;36.70;19.80;;;;;;;6.41;56.12;100446.73;231829;1228;140319;-60
2022/02/26 16:50:07;;;;;;;35.70;19.60;;;;;;;6.29;56.68;100455.83;231556;1228;139401;-62
2022/02/26 16:55:10;;;;;;;34.50;19.50;;;;;;;6.16;56.60;100458.05;231712;1228;139322;-61
2022/02/26 17:00:14;;;;;;;35.20;19.70;;;;;;;6.06;57.10;100467.95;231701;1228;139669;-61
2022/02/26 17:05:18;;;;;;;34.50;18.90;;;;;;;5.99;57.18;100471.09;231660;1228;139316;-61
2022/02/26 17:10:21;;;;;;;34.50;18.90;;;;;;;5.91;57.54;100480.73;231712;1228;140220;-59
2022/02/26 17:15:24;;;;;;;32.80;18.20;;;;;;;5.86;57.80;100486.81;231813;1228;138787;-61
2022/02/26 17:20:27;;;;;;;34.80;20.60;;;;;;;5.83;57.80;100487.55;231689;1228;139283;-61
2022/02/26 17:25:31;;;;;;;38.20;21.30;;;;;;;5.75;57.85;100491.05;231516;1229;139295;-61
2022/02/26 17:30:34;;;;;;;37.80;20.80;;;;;;;5.67;58.24;100491.20;231729;1228;139656;-63
2022/02/26 17:35:38;;;;;;;36.50;20.60;;;;;;;5.61;58.51;100495.02;231642;1228;138632;-62
2022/02/26 17:40:41;;;;;;;103.70;65.50;;;;;;;5.67;59.31;100498.42;231697;1228;139087;-62
2022/02/26 17:45:46;;;;;;;46.60;25.50;;;;;;;5.92;59.54;100503.44;231676;1228;139979;-62
2022/02/26 17:50:54;;;;;;;40.60;24.00;;;;;;;5.94;59.04;100504.48;231823;1228;140042;-61
2022/02/26 17:55:57;;;;;;;43.10;25.60;;;;;;;5.93;59.09;100511.34;231706;1228;139898;-61
2022/02/26 18:01:02;;;;;;;46.90;26.20;;;;;;;5.88;59.03;100510.52;231717;1228;139613;-60
2022/02/26 18:06:06;;;;;;;45.10;26.40;;;;;;;5.87;59.00;100517.24;231683;1228;140219;-61
2022/02/26 18:11:10;;;;;;;50.90;28.10;;;;;;;5.86;59.14;100519.39;231714;1228;139723;-61
2022/02/26 18:16:13;;;;;;;137.50;82.00;;;;;;;5.89;59.40;100527.97;231669;1228;139360;-61
2022/02/26 18:21:16;;;;;;;55.10;32.50;;;;;;;6.35;60.50;100535.02;231787;1228;139929;-64
2022/02/26 18:26:22;;;;;;;;;;;;;;;6.42;59.01;100542.60;231749;1228;140243;-64
2022/02/26 18:31:25;;;;;;;56.50;28.90;;;;;;;6.28;58.77;100548.02;231787;1228;125194;-64
2022/02/26 18:36:29;;;;;;;55.40;29.40;;;;;;;6.13;58.67;100548.66;231704;1228;139348;-64
2022/02/26 18:41:40;;;;;;;59.40;30.30;;;;;;;6.02;58.68;100554.86;231595;1228;139715;-62
2022/02/26 18:46:43;;;;;;;55.50;28.50;;;;;;;5.94;58.70;100555.90;231734;1228;138855;-63
2022/02/26 18:51:48;;;;;;;55.20;28.00;;;;;;;5.87;58.57;100560.40;231632;1228;140869;-64
2022/02/26 18:56:51;;;;;;;44.30;23.40;;;;;;;5.82;58.83;100563.48;231880;1228;139710;-63
2022/02/26 19:01:54;;;;;;;34.30;18.00;;;;;;;5.77;58.83;100565.16;231690;1228;138664;-63
2022/02/26 19:06:58;;;;;;;235.70;151.20;;;;;;;5.72;58.97;100564.71;231733;1228;139071;-62
2022/02/26 19:12:01;;;;;;;50.20;28.60;;;;;;;5.89;59.62;100570.25;231616;1228;139183;-62
2022/02/26 19:17:04;;;;;;;33.90;18.00;;;;;;;5.94;59.02;100570.17;231691;1228;139228;-64
2022/02/26 19:22:08;;;;;;;30.00;15.90;;;;;;;5.82;58.82;100577.05;231740;1228;139614;-62
2022/02/26 19:27:11;;;;;;;28.60;15.10;;;;;;;5.71;58.69;100587.10;231877;1228;139606;-62
2022/02/26 19:32:17;;;;;;;22.00;13.70;;;;;;;5.63;59.02;100586.35;231725;1228;139557;-61
2022/02/26 19:37:21;;;;;;;20.60;11.70;;;;;;;5.56;58.95;100593.88;231689;1228;138901;-62
2022/02/26 19:42:25;;;;;;;18.20;10.50;;;;;;;5.51;59.31;100596.59;231772;1228;139393;-62
2022/02/26 19:47:47;;;;;;;19.30;10.00;;;;;;;5.49;59.22;100604.88;231737;1228;138952;-61
2022/02/26 19:52:51;;;;;;;19.90;10.10;;;;;;;5.49;59.27;100605.06;231733;1228;139621;-63
2022/02/26 19:57:58;;;;;;;19.20;10.60;;;;;;;5.50;59.14;100611.05;231744;1228;138941;-63
2022/02/26 20:03:01;;;;;;;22.20;11.20;;;;;;;5.50;59.04;100612.27;231744;1228;139517;-63
2022/02/26 20:08:10;;;;;;;348.60;237.70;;;;;;;5.53;59.58;100613.98;231658;1228;139665;-62
2022/02/26 20:13:15;;;;;;;27.50;14.10;;;;;;;5.79;60.15;100619.02;231741;1228;140577;-63
2022/02/26 20:18:18;;;;;;;22.90;12.80;;;;;;;5.85;59.51;100619.98;231744;1228;140005;-62
2022/02/26 20:23:21;;;;;;;24.90;13.50;;;;;;;5.81;59.28;100623.02;231607;1228;139516;-61
2022/02/26 20:28:27;;;;;;;27.60;15.40;;;;;;;5.78;59.33;100628.89;231746;1228;139446;-62
2022/02/26 20:33:30;;;;;;;30.90;16.50;;;;;;;5.75;59.31;100628.06;231929;1228;138831;-60
2022/02/26 20:38:34;;;;;;;30.90;15.70;;;;;;;5.72;59.41;100627.05;231611;1228;139937;-60
2022/02/26 20:43:37;;;;;;;30.40;15.90;;;;;;;5.66;59.15;100628.04;231818;1228;138971;-61
2022/02/26 20:48:43;;;;;;;30.70;16.10;;;;;;;5.59;59.18;100632.55;231581;1228;139087;-62
2022/02/26 20:53:46;;;;;;;29.70;15.80;;;;;;;5.53;59.33;100637.76;231808;1228;139690;-63
2022/02/26 20:58:51;;;;;;;28.80;15.90;;;;;;;5.48;59.54;100638.36;231792;1228;139520;-63
2022/02/26 21:03:54;;;;;;;33.90;17.30;;;;;;;5.42;59.62;100633.16;231813;1228;139029;-63
2022/02/26 21:08:57;;;;;;;31.00;17.60;;;;;;;5.40;59.69;100636.01;231882;1228;140038;-64
2022/02/26 21:14:00;;;;;;;36.70;18.70;;;;;;;5.40;59.77;100635.13;231830;1228;139075;-64
2022/02/26 21:19:03;;;;;;;33.10;18.50;;;;;;;5.39;59.72;100636.04;231813;1228;139359;-64
2022/02/26 21:24:07;;;;;;;35.60;18.40;;;;;;;5.39;59.78;100632.52;231743;1228;139947;-59
2022/02/26 21:29:12;;;;;;;34.80;18.30;;;;;;;5.37;59.89;100631.48;231789;1228;139102;-62
2022/02/26 21:34:16;;;;;;;37.40;18.00;;;;;;;5.36;59.76;100634.31;231391;1228;139080;-61
2022/02/26 21:39:20;;;;;;;33.10;17.80;;;;;;;5.34;59.93;100635.76;231822;1228;139000;-63
2022/02/26 21:44:23;;;;;;;32.40;18.80;;;;;;;5.34;59.89;100637.70;231811;1228;139071;-60
2022/02/26 21:49:26;;;;;;;34.20;18.80;;;;;;;5.31;59.88;100636.69;231801;1228;138749;-62
2022/02/26 21:54:29;;;;;;;32.60;18.20;;;;;;;5.26;59.68;100636.76;231752;1228;139293;-60
2022/02/26 21:59:32;;;;;;;34.40;19.20;;;;;;;5.19;59.71;100631.74;231791;1228;139840;-63
2022/02/26 22:04:37;;;;;;;36.90;19.00;;;;;;;5.14;59.75;100637.45;231820;1228;139255;-61
2022/02/26 22:09:41;;;;;;;38.90;19.30;;;;;;;5.08;59.49;100638.59;231719;1228;138957;-59
2022/02/26 22:14:44;;;;;;;35.60;19.20;;;;;;;4.97;59.50;100640.49;231754;1228;139114;-62
2022/02/26 22:19:47;;;;;;;33.70;18.40;;;;;;;4.90;59.48;100638.14;231659;1228;138917;-60
2022/02/26 22:24:52;;;;;;;33.60;19.60;;;;;;;4.82;59.61;100636.64;231753;1228;138934;-65
2022/02/26 22:29:56;;;;;;;36.10;20.10;;;;;;;4.75;59.69;100639.20;231752;1228;139266;-66
2022/02/26 22:35:00;;;;;;;37.70;20.30;;;;;;;4.69;59.77;100638.22;231684;1228;139010;-66
2022/02/26 22:40:04;;;;;;;40.40;21.30;;;;;;;4.62;59.76;100639.00;231781;1230;139406;-61
2022/02/26 22:45:07;;;;;;;38.60;21.00;;;;;;;4.56;59.83;100639.08;231856;1228;138977;-60
2022/02/26 22:50:11;;;;;;;44.80;24.90;;;;;;;4.50;59.85;100641.95;231684;1228;139211;-65